Terminal Aerodrome Forecast
Issued by NWS

Home | Current Version | Previous Version | Text Only | Print | Product List | Glossary On
Versions: 1 2 3 4 5 6 7 8 9 10 11 12 13 14 15 16 17 18 19 20 21 22 23
817
FTUS43 KGRR 092235 AAA
TAFAZO
TAF AMD
KAZO 092235Z 0923/1018 29008KT 3SM -SN BKN028 OVC050
      TEMPO 0923/1003 1SM -SN BR OVC012
     FM100400 25008KT 5SM -SN BR OVC035
     FM100900 26008KT 1 1/2SM -SN BR VV009=

USA.gov is the U.S. government's official web portal to all federal, state and local government web resources and services.